sensor_id;sensor_type;location;lat;lon;timestamp;pressure;altitude;pressure_sealevel;temperature;humidity
37856;BME280;23694;43.274;26.924;2023-12-20T00:00:43;99184.78;;;5.77;85.84
37856;BME280;23694;43.274;26.924;2023-12-20T00:03:10;99178.88;;;5.73;86.01
37856;BME280;23694;43.274;26.924;2023-12-20T00:05:40;99185.91;;;5.71;86.55
37856;BME280;23694;43.274;26.924;2023-12-20T00:10:52;99172.75;;;5.56;86.58
37856;BME280;23694;43.274;26.924;2023-12-20T00:13:21;99180.41;;;5.59;86.50
37856;BME280;23694;43.274;26.924;2023-12-20T00:15:50;99176.00;;;5.40;87.57
37856;BME280;23694;43.274;26.924;2023-12-20T00:18:27;99171.06;;;5.55;87.01
37856;BME280;23694;43.274;26.924;2023-12-20T00:21:21;99165.00;;;5.54;87.31
37856;BME280;23694;43.274;26.924;2023-12-20T00:23:54;99161.00;;;5.47;87.34
37856;BME280;23694;43.274;26.924;2023-12-20T00:26:23;99167.84;;;5.29;87.82
37856;BME280;23694;43.274;26.924;2023-12-20T00:29:03;99168.03;;;5.45;88.31
37856;BME280;23694;43.274;26.924;2023-12-20T00:31:36;99168.66;;;5.50;87.77
37856;BME280;23694;43.274;26.924;2023-12-20T00:34:04;99167.31;;;5.41;87.84
37856;BME280;23694;43.274;26.924;2023-12-20T00:36:30;99159.91;;;5.32;88.37
37856;BME280;23694;43.274;26.924;2023-12-20T00:39:03;99158.25;;;5.31;88.49
37856;BME280;23694;43.274;26.924;2023-12-20T00:41:33;99152.78;;;5.37;87.80
37856;BME280;23694;43.274;26.924;2023-12-20T00:44:15;99147.56;;;5.37;87.63
37856;BME280;23694;43.274;26.924;2023-12-20T00:46:43;99143.16;;;5.19;88.26
37856;BME280;23694;43.274;26.924;2023-12-20T00:49:15;99144.47;;;4.89;90.80
37856;BME280;23694;43.274;26.924;2023-12-20T00:51:50;99139.47;;;4.84;90.96
37856;BME280;23694;43.274;26.924;2023-12-20T00:54:23;99135.78;;;4.90;91.19
37856;BME280;23694;43.274;26.924;2023-12-20T00:56:52;99126.69;;;5.00;91.54
37856;BME280;23694;43.274;26.924;2023-12-20T01:01:52;99120.41;;;4.85;91.22
37856;BME280;23694;43.274;26.924;2023-12-20T01:04:28;99121.75;;;4.73;92.50
37856;BME280;23694;43.274;26.924;2023-12-20T01:06:57;99102.28;;;4.84;91.93
37856;BME280;23694;43.274;26.924;2023-12-20T01:09:28;99109.81;;;4.90;91.60
37856;BME280;23694;43.274;26.924;2023-12-20T01:12:14;99103.06;;;4.65;92.57
37856;BME280;23694;43.274;26.924;2023-12-20T01:14:59;99108.66;;;4.56;93.18
37856;BME280;23694;43.274;26.924;2023-12-20T01:17:30;99100.88;;;4.56;93.04
37856;BME280;23694;43.274;26.924;2023-12-20T01:19:58;99095.97;;;4.49;94.12
37856;BME280;23694;43.274;26.924;2023-12-20T01:22:26;99093.72;;;4.61;94.28
37856;BME280;23694;43.274;26.924;2023-12-20T01:25:38;99084.19;;;4.62;93.69
37856;BME280;23694;43.274;26.924;2023-12-20T01:28:33;99072.72;;;4.67;93.99
37856;BME280;23694;43.274;26.924;2023-12-20T01:31:09;99070.50;;;4.78;92.30
37856;BME280;23694;43.274;26.924;2023-12-20T01:33:37;99068.44;;;4.66;93.13
37856;BME280;23694;43.274;26.924;2023-12-20T01:36:04;99061.16;;;4.74;92.96
37856;BME280;23694;43.274;26.924;2023-12-20T01:38:48;99057.34;;;4.63;92.83
37856;BME280;23694;43.274;26.924;2023-12-20T01:41:18;99054.28;;;4.53;94.08
37856;BME280;23694;43.274;26.924;2023-12-20T01:43:54;99053.78;;;4.65;92.81
37856;BME280;23694;43.274;26.924;2023-12-20T01:46:30;99047.16;;;4.78;92.62
37856;BME280;23694;43.274;26.924;2023-12-20T01:49:17;99048.31;;;4.71;92.68
37856;BME280;23694;43.274;26.924;2023-12-20T01:52:00;99034.44;;;4.72;92.77
37856;BME280;23694;43.274;26.924;2023-12-20T01:54:55;99036.84;;;4.77;92.45
37856;BME280;23694;43.274;26.924;2023-12-20T01:57:41;99027.78;;;4.67;92.60
37856;BME280;23694;43.274;26.924;2023-12-20T02:00:12;99027.38;;;4.56;92.58
37856;BME280;23694;43.274;26.924;2023-12-20T02:02:44;99025.22;;;4.45;93.93
37856;BME280;23694;43.274;26.924;2023-12-20T02:05:13;99021.53;;;4.51;93.81
37856;BME280;23694;43.274;26.924;2023-12-20T02:07:47;99018.56;;;4.60;92.61
37856;BME280;23694;43.274;26.924;2023-12-20T02:10:15;99017.78;;;4.58;92.83
37856;BME280;23694;43.274;26.924;2023-12-20T02:12:50;99015.22;;;4.16;95.73
37856;BME280;23694;43.274;26.924;2023-12-20T02:15:22;99006.66;;;4.13;96.65
37856;BME280;23694;43.274;26.924;2023-12-20T02:17:50;98997.84;;;4.18;97.51
37856;BME280;23694;43.274;26.924;2023-12-20T02:20:30;98997.91;;;4.16;97.37
37856;BME280;23694;43.274;26.924;2023-12-20T02:22:58;98992.34;;;4.25;97.09
37856;BME280;23694;43.274;26.924;2023-12-20T02:25:33;98984.44;;;4.08;97.28
37856;BME280;23694;43.274;26.924;2023-12-20T02:28:05;98987.16;;;4.05;99.78
37856;BME280;23694;43.274;26.924;2023-12-20T02:30:34;98987.88;;;4.29;97.78
37856;BME280;23694;43.274;26.924;2023-12-20T02:33:15;98985.72;;;3.98;98.51
37856;BME280;23694;43.274;26.924;2023-12-20T02:35:46;98973.03;;;3.92;99.79
37856;BME280;23694;43.274;26.924;2023-12-20T02:38:21;98967.72;;;3.95;100.00
37856;BME280;23694;43.274;26.924;2023-12-20T02:41:05;98967.78;;;4.13;99.22
37856;BME280;23694;43.274;26.924;2023-12-20T02:43:33;98974.59;;;4.16;99.16
37856;BME280;23694;43.274;26.924;2023-12-20T02:46:02;98967.59;;;4.18;98.33
37856;BME280;23694;43.274;26.924;2023-12-20T02:48:29;98970.25;;;4.17;98.43
37856;BME280;23694;43.274;26.924;2023-12-20T02:51:06;98968.94;;;4.27;98.25
37856;BME280;23694;43.274;26.924;2023-12-20T02:53:43;98964.84;;;4.41;96.96
37856;BME280;23694;43.274;26.924;2023-12-20T02:56:22;98958.06;;;4.39;96.10
37856;BME280;23694;43.274;26.924;2023-12-20T02:58:51;98954.69;;;4.37;96.22
37856;BME280;23694;43.274;26.924;2023-12-20T03:01:27;98957.09;;;4.41;95.95
37856;BME280;23694;43.274;26.924;2023-12-20T03:03:53;98957.88;;;4.23;97.26
37856;BME280;23694;43.274;26.924;2023-12-20T03:06:22;98953.78;;;4.38;95.85
37856;BME280;23694;43.274;26.924;2023-12-20T03:09:31;98947.16;;;4.31;95.82
37856;BME280;23694;43.274;26.924;2023-12-20T03:12:35;98957.16;;;4.20;96.98
37856;BME280;23694;43.274;26.924;2023-12-20T03:17:44;98956.38;;;4.18;96.03
37856;BME280;23694;43.274;26.924;2023-12-20T03:20:16;98947.31;;;4.28;96.29
37856;BME280;23694;43.274;26.924;2023-12-20T03:23:09;98947.81;;;4.16;96.43
37856;BME280;23694;43.274;26.924;2023-12-20T03:25:42;98947.75;;;4.17;97.02
37856;BME280;23694;43.274;26.924;2023-12-20T03:30:54;98940.03;;;4.16;96.18
37856;BME280;23694;43.274;26.924;2023-12-20T03:33:22;98935.00;;;4.12;96.12
37856;BME280;23694;43.274;26.924;2023-12-20T03:35:51;98932.41;;;4.12;96.08
37856;BME280;23694;43.274;26.924;2023-12-20T03:38:46;98925.13;;;4.21;95.97
37856;BME280;23694;43.274;26.924;2023-12-20T03:44:14;98917.56;;;4.16;95.65
37856;BME280;23694;43.274;26.924;2023-12-20T03:47:08;98912.19;;;4.00;96.77
37856;BME280;23694;43.274;26.924;2023-12-20T03:49:37;98908.53;;;3.84;97.18
37856;BME280;23694;43.274;26.924;2023-12-20T03:52:10;98903.53;;;3.79;98.36
37856;BME280;23694;43.274;26.924;2023-12-20T03:54:47;98906.44;;;3.72;99.16
37856;BME280;23694;43.274;26.924;2023-12-20T03:57:14;98896.47;;;3.63;99.64
37856;BME280;23694;43.274;26.924;2023-12-20T03:59:45;98891.28;;;3.63;100.00
37856;BME280;23694;43.274;26.924;2023-12-20T04:02:30;98894.69;;;3.43;100.00
37856;BME280;23694;43.274;26.924;2023-12-20T04:05:09;98888.78;;;3.39;100.00
37856;BME280;23694;43.274;26.924;2023-12-20T04:07:47;98887.03;;;3.18;100.00
37856;BME280;23694;43.274;26.924;2023-12-20T04:10:37;98885.22;;;3.20;100.00
37856;BME280;23694;43.274;26.924;2023-12-20T04:13:18;98875.81;;;3.17;100.00
37856;BME280;23694;43.274;26.924;2023-12-20T04:15:51;98877.94;;;3.08;100.00
37856;BME280;23694;43.274;26.924;2023-12-20T04:18:32;98878.59;;;3.13;100.00
37856;BME280;23694;43.274;26.924;2023-12-20T04:21:13;98870.38;;;3.25;100.00
37856;BME280;23694;43.274;26.924;2023-12-20T04:24:09;98873.81;;;3.26;100.00
37856;BME280;23694;43.274;26.924;2023-12-20T04:26:42;98863.25;;;3.08;100.00
37856;BME280;23694;43.274;26.924;2023-12-20T04:29:16;98862.06;;;3.39;100.00
37856;BME280;23694;43.274;26.924;2023-12-20T04:31:50;98856.22;;;3.34;100.00
37856;BME280;23694;43.274;26.924;2023-12-20T04:34:43;98868.44;;;3.08;100.00
37856;BME280;23694;43.274;26.924;2023-12-20T04:37:15;98864.88;;;3.11;100.00
37856;BME280;23694;43.274;26.924;2023-12-20T04:39:46;98860.84;;;3.04;100.00
37856;BME280;23694;43.274;26.924;2023-12-20T04:42:18;98864.56;;;2.97;100.00
37856;BME280;23694;43.274;26.924;2023-12-20T04:44:55;98865.47;;;2.96;100.00
37856;BME280;23694;43.274;26.924;2023-12-20T04:47:25;98867.94;;;2.99;100.00
37856;BME280;23694;43.274;26.924;2023-12-20T04:50:04;98861.94;;;2.98;100.00
37856;BME280;23694;43.274;26.924;2023-12-20T04:52:45;98859.78;;;2.64;100.00
37856;BME280;23694;43.274;26.924;2023-12-20T04:55:13;98857.88;;;2.69;100.00
37856;BME280;23694;43.274;26.924;2023-12-20T04:58:09;98853.97;;;3.03;100.00
37856;BME280;23694;43.274;26.924;2023-12-20T05:00:55;98856.81;;;2.75;100.00
37856;BME280;23694;43.274;26.924;2023-12-20T05:03:23;98846.22;;;2.81;100.00
37856;BME280;23694;43.274;26.924;2023-12-20T05:06:01;98847.25;;;2.77;100.00
37856;BME280;23694;43.274;26.924;2023-12-20T05:08:49;98848.72;;;2.61;100.00
37856;BME280;23694;43.274;26.924;2023-12-20T05:11:16;98843.31;;;2.67;100.00
37856;BME280;23694;43.274;26.924;2023-12-20T05:14:11;98838.53;;;2.79;100.00
37856;BME280;23694;43.274;26.924;2023-12-20T05:16:40;98833.75;;;2.69;100.00
37856;BME280;23694;43.274;26.924;2023-12-20T05:19:09;98837.91;;;2.49;100.00
37856;BME280;23694;43.274;26.924;2023-12-20T05:22:07;98846.63;;;2.47;100.00
37856;BME280;23694;43.274;26.924;2023-12-20T05:24:38;98839.84;;;2.68;100.00
37856;BME280;23694;43.274;26.924;2023-12-20T05:27:31;98827.19;;;2.60;100.00
37856;BME280;23694;43.274;26.924;2023-12-20T05:30:13;98836.84;;;2.78;100.00
37856;BME280;23694;43.274;26.924;2023-12-20T05:33:00;98832.56;;;2.99;100.00
37856;BME280;23694;43.274;26.924;2023-12-20T05:35:31;98835.56;;;3.10;100.00
37856;BME280;23694;43.274;26.924;2023-12-20T05:38:19;98830.88;;;3.20;100.00
37856;BME280;23694;43.274;26.924;2023-12-20T05:40:49;98833.25;;;3.26;100.00
37856;BME280;23694;43.274;26.924;2023-12-20T05:43:27;98842.63;;;3.29;100.00
37856;BME280;23694;43.274;26.924;2023-12-20T05:46:00;98839.78;;;3.35;100.00
37856;BME280;23694;43.274;26.924;2023-12-20T05:48:27;98843.28;;;3.54;100.00
37856;BME280;23694;43.274;26.924;2023-12-20T05:50:59;98829.69;;;3.69;100.00
37856;BME280;23694;43.274;26.924;2023-12-20T05:53:41;98836.50;;;3.72;100.00
37856;BME280;23694;43.274;26.924;2023-12-20T05:56:10;98846.28;;;4.06;100.00
37856;BME280;23694;43.274;26.924;2023-12-20T05:59:06;98842.53;;;5.78;96.92
37856;BME280;23694;43.274;26.924;2023-12-20T06:01:46;98830.47;;;7.39;85.21
37856;BME280;23694;43.274;26.924;2023-12-20T06:04:35;98827.34;;;8.92;72.96
37856;BME280;23694;43.274;26.924;2023-12-20T06:07:12;98820.66;;;10.19;64.42
37856;BME280;23694;43.274;26.924;2023-12-20T06:10:02;98818.69;;;11.45;56.28
37856;BME280;23694;43.274;26.924;2023-12-20T06:15:27;98808.66;;;13.42;48.25
37856;BME280;23694;43.274;26.924;2023-12-20T06:17:56;98814.88;;;14.35;45.43
37856;BME280;23694;43.274;26.924;2023-12-20T06:20:30;98808.94;;;15.42;42.41
37856;BME280;23694;43.274;26.924;2023-12-20T06:23:14;98818.47;;;16.21;39.81
37856;BME280;23694;43.274;26.924;2023-12-20T06:25:54;98809.09;;;16.83;38.69
37856;BME280;23694;43.274;26.924;2023-12-20T06:28:26;98808.00;;;18.10;36.00
37856;BME280;23694;43.274;26.924;2023-12-20T06:31:06;98803.78;;;18.85;34.06
37856;BME280;23694;43.274;26.924;2023-12-20T06:33:37;98797.53;;;17.64;34.80
37856;BME280;23694;43.274;26.924;2023-12-20T06:36:15;98807.34;;;16.27;37.38
37856;BME280;23694;43.274;26.924;2023-12-20T06:38:47;98814.00;;;16.31;37.70
37856;BME280;23694;43.274;26.924;2023-12-20T06:41:20;98806.13;;;17.13;36.51
37856;BME280;23694;43.274;26.924;2023-12-20T06:44:12;98802.06;;;18.16;34.63
37856;BME280;23694;43.274;26.924;2023-12-20T06:46:42;98792.06;;;19.62;32.21
37856;BME280;23694;43.274;26.924;2023-12-20T06:49:12;98799.13;;;21.21;28.83
37856;BME280;23694;43.274;26.924;2023-12-20T06:52:05;98801.66;;;22.73;26.99
37856;BME280;23694;43.274;26.924;2023-12-20T06:54:55;98802.06;;;22.99;26.33
37856;BME280;23694;43.274;26.924;2023-12-20T06:57:30;98798.41;;;23.22;25.81
37856;BME280;23694;43.274;26.924;2023-12-20T06:59:58;98795.44;;;24.17;25.00
37856;BME280;23694;43.274;26.924;2023-12-20T07:02:28;98783.59;;;25.08;23.89
37856;BME280;23694;43.274;26.924;2023-12-20T07:05:10;98779.84;;;25.70;22.33
37856;BME280;23694;43.274;26.924;2023-12-20T07:08:01;98770.34;;;25.81;22.92
37856;BME280;23694;43.274;26.924;2023-12-20T07:10:34;98775.69;;;26.47;21.85
37856;BME280;23694;43.274;26.924;2023-12-20T07:13:13;98764.53;;;27.08;21.62
37856;BME280;23694;43.274;26.924;2023-12-20T07:15:59;98765.47;;;26.82;21.60
37856;BME280;23694;43.274;26.924;2023-12-20T07:18:36;98764.13;;;25.41;22.97
37856;BME280;23694;43.274;26.924;2023-12-20T07:21:04;98761.88;;;25.57;22.91
37856;BME280;23694;43.274;26.924;2023-12-20T07:23:36;98758.75;;;26.46;21.96
37856;BME280;23694;43.274;26.924;2023-12-20T07:26:07;98761.97;;;26.75;21.20
37856;BME280;23694;43.274;26.924;2023-12-20T07:28:49;98754.69;;;26.04;21.56
37856;BME280;23694;43.274;26.924;2023-12-20T07:31:16;98750.13;;;26.11;21.89
37856;BME280;23694;43.274;26.924;2023-12-20T07:34:12;98746.06;;;27.18;21.11
37856;BME280;23694;43.274;26.924;2023-12-20T07:36:39;98743.88;;;27.71;20.46
37856;BME280;23694;43.274;26.924;2023-12-20T07:39:07;98736.19;;;28.00;20.46
37856;BME280;23694;43.274;26.924;2023-12-20T07:41:47;98736.78;;;27.77;20.50
37856;BME280;23694;43.274;26.924;2023-12-20T07:44:40;98730.97;;;27.17;20.96
37856;BME280;23694;43.274;26.924;2023-12-20T07:47:16;98728.25;;;26.01;21.83
37856;BME280;23694;43.274;26.924;2023-12-20T07:49:51;98730.28;;;23.75;24.47
37856;BME280;23694;43.274;26.924;2023-12-20T07:52:46;98741.81;;;21.33;27.62
37856;BME280;23694;43.274;26.924;2023-12-20T07:55:14;98739.22;;;19.91;29.61
37856;BME280;23694;43.274;26.924;2023-12-20T07:57:46;98732.63;;;17.60;33.31
37856;BME280;23694;43.274;26.924;2023-12-20T08:00:36;98726.13;;;16.19;36.56
37856;BME280;23694;43.274;26.924;2023-12-20T08:03:02;98729.47;;;15.26;39.03
37856;BME280;23694;43.274;26.924;2023-12-20T08:05:30;98730.09;;;14.30;41.69
37856;BME280;23694;43.274;26.924;2023-12-20T08:08:13;98731.53;;;13.41;43.92
37856;BME280;23694;43.274;26.924;2023-12-20T08:10:42;98728.09;;;12.97;46.09
37856;BME280;23694;43.274;26.924;2023-12-20T08:13:10;98728.00;;;12.88;47.48
37856;BME280;23694;43.274;26.924;2023-12-20T08:15:47;98717.44;;;12.67;48.47
37856;BME280;23694;43.274;26.924;2023-12-20T08:18:19;98723.34;;;12.15;50.33
37856;BME280;23694;43.274;26.924;2023-12-20T08:20:57;98728.03;;;11.65;51.60
37856;BME280;23694;43.274;26.924;2023-12-20T08:23:29;98725.44;;;11.30;53.58
37856;BME280;23694;43.274;26.924;2023-12-20T08:25:58;98713.03;;;10.97;55.33
37856;BME280;23694;43.274;26.924;2023-12-20T08:28:38;98701.88;;;10.58;57.22
37856;BME280;23694;43.274;26.924;2023-12-20T08:33:47;98692.13;;;10.24;59.83
37856;BME280;23694;43.274;26.924;2023-12-20T08:36:27;98691.28;;;10.23;61.66
37856;BME280;23694;43.274;26.924;2023-12-20T08:39:05;98688.78;;;10.58;60.56
37856;BME280;23694;43.274;26.924;2023-12-20T08:41:45;98680.13;;;10.93;59.34
37856;BME280;23694;43.274;26.924;2023-12-20T08:44:23;98669.47;;;11.64;56.45
37856;BME280;23694;43.274;26.924;2023-12-20T08:46:54;98662.13;;;14.64;46.94
37856;BME280;23694;43.274;26.924;2023-12-20T08:49:24;98644.56;;;16.34;42.14
37856;BME280;23694;43.274;26.924;2023-12-20T08:51:59;98646.25;;;19.43;35.99
37856;BME280;23694;43.274;26.924;2023-12-20T08:54:31;98645.59;;;19.32;34.62
37856;BME280;23694;43.274;26.924;2023-12-20T08:57:19;98631.78;;;19.78;33.65
37856;BME280;23694;43.274;26.924;2023-12-20T08:59:54;98638.06;;;21.55;30.49
37856;BME280;23694;43.274;26.924;2023-12-20T09:02:20;98630.94;;;23.29;27.99
37856;BME280;23694;43.274;26.924;2023-12-20T09:04:50;98627.06;;;23.31;27.24
37856;BME280;23694;43.274;26.924;2023-12-20T09:08:00;98622.97;;;24.26;25.73
37856;BME280;23694;43.274;26.924;2023-12-20T09:10:32;98618.09;;;25.10;24.85
37856;BME280;23694;43.274;26.924;2023-12-20T09:15:45;98618.53;;;21.25;29.24
37856;BME280;23694;43.274;26.924;2023-12-20T09:18:48;98613.41;;;19.19;32.43
37856;BME280;23694;43.274;26.924;2023-12-20T09:21:26;98599.28;;;17.69;34.70
37856;BME280;23694;43.274;26.924;2023-12-20T09:23:58;98607.44;;;15.14;39.87
37856;BME280;23694;43.274;26.924;2023-12-20T09:26:29;98599.59;;;14.26;42.77
37856;BME280;23694;43.274;26.924;2023-12-20T09:28:58;98593.19;;;12.97;46.67
37856;BME280;23694;43.274;26.924;2023-12-20T09:31:48;98599.78;;;14.34;44.78
37856;BME280;23694;43.274;26.924;2023-12-20T09:34:24;98573.81;;;16.81;38.44
37856;BME280;23694;43.274;26.924;2023-12-20T09:36:56;98574.84;;;14.77;42.20
37856;BME280;23694;43.274;26.924;2023-12-20T09:39:28;98573.59;;;14.90;41.87
37856;BME280;23694;43.274;26.924;2023-12-20T09:42:05;98566.38;;;13.45;45.18
37856;BME280;23694;43.274;26.924;2023-12-20T09:44:55;98559.72;;;14.69;42.89
37856;BME280;23694;43.274;26.924;2023-12-20T09:47:47;98569.56;;;14.38;42.81
37856;BME280;23694;43.274;26.924;2023-12-20T09:50:22;98563.69;;;14.15;44.13
37856;BME280;23694;43.274;26.924;2023-12-20T09:52:55;98552.78;;;13.70;45.32
37856;BME280;23694;43.274;26.924;2023-12-20T09:55:32;98536.50;;;16.48;40.11
37856;BME280;23694;43.274;26.924;2023-12-20T09:58:12;98530.06;;;19.37;34.33
37856;BME280;23694;43.274;26.924;2023-12-20T10:00:41;98520.66;;;21.04;31.40
37856;BME280;23694;43.274;26.924;2023-12-20T10:03:10;98522.78;;;22.11;29.35
37856;BME280;23694;43.274;26.924;2023-12-20T10:05:59;98522.69;;;22.05;28.74
37856;BME280;23694;43.274;26.924;2023-12-20T10:08:29;98516.84;;;20.38;30.48
37856;BME280;23694;43.274;26.924;2023-12-20T10:10:59;98520.34;;;17.73;34.61
37856;BME280;23694;43.274;26.924;2023-12-20T10:13:30;98506.88;;;15.54;39.04
37856;BME280;23694;43.274;26.924;2023-12-20T10:16:04;98502.34;;;15.10;39.90
37856;BME280;23694;43.274;26.924;2023-12-20T10:18:35;98492.81;;;14.99;40.85
37856;BME280;23694;43.274;26.924;2023-12-20T10:21:31;98482.66;;;15.41;40.04
37856;BME280;23694;43.274;26.924;2023-12-20T10:24:15;98478.00;;;15.26;39.45
37856;BME280;23694;43.274;26.924;2023-12-20T10:27:23;98478.44;;;13.47;44.19
37856;BME280;23694;43.274;26.924;2023-12-20T10:30:05;98472.81;;;12.49;45.19
37856;BME280;23694;43.274;26.924;2023-12-20T10:32:55;98467.84;;;12.35;46.11
37856;BME280;23694;43.274;26.924;2023-12-20T10:35:51;98460.00;;;12.56;45.20
37856;BME280;23694;43.274;26.924;2023-12-20T10:38:42;98448.47;;;12.98;44.13
37856;BME280;23694;43.274;26.924;2023-12-20T10:41:14;98452.25;;;14.53;40.59
37856;BME280;23694;43.274;26.924;2023-12-20T10:43:48;98435.47;;;16.01;37.83
37856;BME280;23694;43.274;26.924;2023-12-20T10:46:29;98435.19;;;17.60;34.22
37856;BME280;23694;43.274;26.924;2023-12-20T10:49:40;98426.06;;;18.21;32.87
37856;BME280;23694;43.274;26.924;2023-12-20T10:52:14;98431.13;;;17.82;33.58
37856;BME280;23694;43.274;26.924;2023-12-20T10:54:52;98419.91;;;18.53;32.47
37856;BME280;23694;43.274;26.924;2023-12-20T10:57:29;98417.41;;;19.31;31.27
37856;BME280;23694;43.274;26.924;2023-12-20T11:00:01;98413.50;;;19.50;30.89
37856;BME280;23694;43.274;26.924;2023-12-20T11:02:32;98407.13;;;18.08;32.88
37856;BME280;23694;43.274;26.924;2023-12-20T11:05:19;98397.78;;;19.01;31.96
37856;BME280;23694;43.274;26.924;2023-12-20T11:08:26;98393.66;;;18.90;32.15
37856;BME280;23694;43.274;26.924;2023-12-20T11:10:59;98395.63;;;19.75;31.18
37856;BME280;23694;43.274;26.924;2023-12-20T11:17:36;98376.44;;;20.85;29.53
37856;BME280;23694;43.274;26.924;2023-12-20T11:20:09;98385.69;;;16.76;35.85
37856;BME280;23694;43.274;26.924;2023-12-20T11:22:39;98383.00;;;16.94;36.25
37856;BME280;23694;43.274;26.924;2023-12-20T11:25:16;98378.47;;;16.16;36.33
37856;BME280;23694;43.274;26.924;2023-12-20T11:28:08;98381.22;;;15.89;37.55
37856;BME280;23694;43.274;26.924;2023-12-20T11:30:55;98374.00;;;16.35;36.37
37856;BME280;23694;43.274;26.924;2023-12-20T11:33:39;98364.63;;;15.61;37.01
37856;BME280;23694;43.274;26.924;2023-12-20T11:36:26;98370.53;;;16.16;36.91
37856;BME280;23694;43.274;26.924;2023-12-20T11:42:15;98361.69;;;14.35;39.94
37856;BME280;23694;43.274;26.924;2023-12-20T11:44:46;98349.50;;;14.34;40.00
37856;BME280;23694;43.274;26.924;2023-12-20T11:47:14;98345.53;;;14.67;40.07
37856;BME280;23694;43.274;26.924;2023-12-20T11:49:49;98333.00;;;15.06;38.95
37856;BME280;23694;43.274;26.924;2023-12-20T11:52:29;98335.03;;;15.93;38.09
37856;BME280;23694;43.274;26.924;2023-12-20T11:55:22;98337.00;;;16.35;36.51
37856;BME280;23694;43.274;26.924;2023-12-20T11:57:53;98324.38;;;16.03;37.71
37856;BME280;23694;43.274;26.924;2023-12-20T12:00:21;98323.75;;;15.65;37.67
37856;BME280;23694;43.274;26.924;2023-12-20T12:02:58;98310.81;;;16.49;36.40
37856;BME280;23694;43.274;26.924;2023-12-20T12:05:31;98319.41;;;16.00;37.74
37856;BME280;23694;43.274;26.924;2023-12-20T12:07:59;98307.56;;;15.33;38.82
37856;BME280;23694;43.274;26.924;2023-12-20T12:10:27;98300.72;;;14.95;39.45
37856;BME280;23694;43.274;26.924;2023-12-20T12:13:11;98291.06;;;14.58;40.70
37856;BME280;23694;43.274;26.924;2023-12-20T12:15:43;98296.09;;;14.51;41.44
37856;BME280;23694;43.274;26.924;2023-12-20T12:18:31;98300.13;;;14.26;41.89
37856;BME280;23694;43.274;26.924;2023-12-20T12:21:03;98282.03;;;14.14;42.46
37856;BME280;23694;43.274;26.924;2023-12-20T12:23:53;98282.31;;;15.12;40.92
37856;BME280;23694;43.274;26.924;2023-12-20T12:26:36;98278.88;;;16.35;37.94
37856;BME280;23694;43.274;26.924;2023-12-20T12:29:10;98273.50;;;17.61;35.31
37856;BME280;23694;43.274;26.924;2023-12-20T12:31:38;98258.91;;;18.22;33.85
37856;BME280;23694;43.274;26.924;2023-12-20T12:34:11;98257.78;;;19.03;32.53
37856;BME280;23694;43.274;26.924;2023-12-20T12:36:58;98261.84;;;18.35;33.19
37856;BME280;23694;43.274;26.924;2023-12-20T12:39:35;98258.16;;;19.23;32.06
37856;BME280;23694;43.274;26.924;2023-12-20T12:42:10;98245.81;;;19.07;32.38
37856;BME280;23694;43.274;26.924;2023-12-20T12:45:09;98243.72;;;16.42;36.37
37856;BME280;23694;43.274;26.924;2023-12-20T12:47:46;98243.72;;;16.16;36.87
37856;BME280;23694;43.274;26.924;2023-12-20T12:50:59;98236.72;;;15.20;38.46
37856;BME280;23694;43.274;26.924;2023-12-20T12:53:35;98239.03;;;15.59;38.01
37856;BME280;23694;43.274;26.924;2023-12-20T12:56:16;98232.63;;;16.39;36.55
37856;BME280;23694;43.274;26.924;2023-12-20T12:58:54;98233.84;;;15.67;37.33
37856;BME280;23694;43.274;26.924;2023-12-20T13:01:20;98230.06;;;14.53;39.70
37856;BME280;23694;43.274;26.924;2023-12-20T13:03:59;98231.59;;;14.09;40.49
37856;BME280;23694;43.274;26.924;2023-12-20T13:06:30;98229.75;;;13.72;42.41
37856;BME280;23694;43.274;26.924;2023-12-20T13:09:01;98233.63;;;13.78;42.47
37856;BME280;23694;43.274;26.924;2023-12-20T13:11:57;98234.16;;;13.91;42.95
37856;BME280;23694;43.274;26.924;2023-12-20T13:14:32;98232.63;;;13.88;43.85
37856;BME280;23694;43.274;26.924;2023-12-20T13:17:01;98235.06;;;14.09;43.68
37856;BME280;23694;43.274;26.924;2023-12-20T13:19:31;98236.09;;;14.63;43.62
37856;BME280;23694;43.274;26.924;2023-12-20T13:22:21;98231.41;;;14.84;42.80
37856;BME280;23694;43.274;26.924;2023-12-20T13:25:10;98236.44;;;14.50;43.87
37856;BME280;23694;43.274;26.924;2023-12-20T13:27:43;98232.19;;;14.40;45.08
37856;BME280;23694;43.274;26.924;2023-12-20T13:30:11;98223.44;;;14.02;46.05
37856;BME280;23694;43.274;26.924;2023-12-20T13:32:47;98225.84;;;14.33;46.14
37856;BME280;23694;43.274;26.924;2023-12-20T13:35:20;98220.59;;;14.60;45.55
37856;BME280;23694;43.274;26.924;2023-12-20T13:37:49;98213.38;;;14.62;45.73
37856;BME280;23694;43.274;26.924;2023-12-20T13:40:26;98216.22;;;14.41;46.56
37856;BME280;23694;43.274;26.924;2023-12-20T13:43:07;98209.44;;;14.39;47.04
37856;BME280;23694;43.274;26.924;2023-12-20T13:45:50;98203.16;;;14.12;48.02
37856;BME280;23694;43.274;26.924;2023-12-20T13:48:22;98207.88;;;13.62;48.71
37856;BME280;23694;43.274;26.924;2023-12-20T13:50:56;98198.25;;;13.24;50.39
37856;BME280;23694;43.274;26.924;2023-12-20T13:53:25;98200.28;;;13.01;51.53
37856;BME280;23694;43.274;26.924;2023-12-20T13:55:55;98192.09;;;12.94;52.71
37856;BME280;23694;43.274;26.924;2023-12-20T13:58:27;98181.72;;;12.74;52.32
37856;BME280;23694;43.274;26.924;2023-12-20T14:00:55;98189.47;;;12.25;55.69
37856;BME280;23694;43.274;26.924;2023-12-20T14:03:27;98195.03;;;12.01;56.04
37856;BME280;23694;43.274;26.924;2023-12-20T14:06:08;98193.03;;;11.84;57.28
37856;BME280;23694;43.274;26.924;2023-12-20T14:09:05;98185.06;;;11.95;57.24
37856;BME280;23694;43.274;26.924;2023-12-20T14:11:46;98186.22;;;11.61;58.55
37856;BME280;23694;43.274;26.924;2023-12-20T14:14:18;98189.69;;;11.61;58.83